Hundvaag 1 weather for Jan 1999
Month no. 139
Obs.
Da.
Temp. Dew Point Precip. Wind
Speed
Wind gusts Cloud cover Press. Humidity Wind dir. Sunny OPT
01.01.1999 7,4   1,0     0          
02.01.1999 6,4   0,0     3       1  
03.01.1999 6,0   10,0     0          
04.01.1999 5,9   2,0     0          
05.01.1999 6,6   16,0     3          
06.01.1999 4,9   9,0     0          
07.01.1999 3,2   9,0     4       1  
08.01.1999 1,1   0,0     0       1  
09.01.1999 -1,4   0,0     10       1  
10.01.1999 -1,4   0,0     3          
11.01.1999 -3,5   0,0     10       1  
12.01.1999 -3,5   0,0     5       1  
13.01.1999 -2,2   0,0     0       1  
14.01.1999 0,1   0,0     0          
15.01.1999 0,0   0,0     0          
16.01.1999 2,3   28,0     3       1  
17.01.1999 4,0   3,0     5       1  
18.01.1999 4,0   4,0     0       1  
19.01.1999 6,9   14,0     0          
20.01.1999 7,2   7,0     0          
21.01.1999 6,2   1,0     0          
22.01.1999 3,4   13,0     0          
23.01.1999 5,1   28,0     0          
24.01.1999 5,5   19,0     1          
25.01.1999 4,2   0,0     0       1  
26.01.1999 3,1   1,0     0          
27.01.1999 1,0   5,0     8       1  
28.01.1999 -0,2   0,0     1       1  
29.01.1999 -4,8   0,0     0       1  
30.01.1999 4,1   0,0     0          
31.01.1999 6,0   10,0     0          
Avrg/Sum 2,8   180,0     1,8       14